sensor_id;sensor_type;location;lat;lon;timestamp;temperature;humidity
975;DHT22;6115;49.296;10.602;2023-04-15T00:01:44;7.20;62.60
975;DHT22;6115;49.296;10.602;2023-04-15T00:06:52;7.30;62.70
975;DHT22;6115;49.296;10.602;2023-04-15T00:11:53;7.20;62.60
975;DHT22;6115;49.296;10.602;2023-04-15T00:16:55;7.30;62.70
975;DHT22;6115;49.296;10.602;2023-04-15T00:21:56;7.20;62.60
975;DHT22;6115;49.296;10.602;2023-04-15T00:26:57;7.10;62.50
975;DHT22;6115;49.296;10.602;2023-04-15T00:31:58;7.10;62.90
975;DHT22;6115;49.296;10.602;2023-04-15T00:36:58;7.00;63.30
975;DHT22;6115;49.296;10.602;2023-04-15T00:41:59;7.00;63.70
975;DHT22;6115;49.296;10.602;2023-04-15T00:47:00;6.90;63.90
975;DHT22;6115;49.296;10.602;2023-04-15T00:52:01;6.90;64.10
975;DHT22;6115;49.296;10.602;2023-04-15T00:57:04;6.90;63.80
975;DHT22;6115;49.296;10.602;2023-04-15T01:02:05;6.80;64.30
975;DHT22;6115;49.296;10.602;2023-04-15T01:07:06;6.80;64.50
975;DHT22;6115;49.296;10.602;2023-04-15T01:12:09;6.90;64.70
975;DHT22;6115;49.296;10.602;2023-04-15T01:17:11;6.90;64.90
975;DHT22;6115;49.296;10.602;2023-04-15T01:22:12;6.90;64.90
975;DHT22;6115;49.296;10.602;2023-04-15T01:27:13;6.80;64.70
975;DHT22;6115;49.296;10.602;2023-04-15T01:32:14;6.70;64.80
975;DHT22;6115;49.296;10.602;2023-04-15T01:37:15;6.70;64.90
975;DHT22;6115;49.296;10.602;2023-04-15T01:42:15;6.70;65.20
975;DHT22;6115;49.296;10.602;2023-04-15T01:47:16;6.70;65.20
975;DHT22;6115;49.296;10.602;2023-04-15T01:52:17;6.80;65.30
975;DHT22;6115;49.296;10.602;2023-04-15T01:57:17;6.70;65.30
975;DHT22;6115;49.296;10.602;2023-04-15T02:02:18;6.70;65.10
975;DHT22;6115;49.296;10.602;2023-04-15T02:07:18;6.70;65.30
975;DHT22;6115;49.296;10.602;2023-04-15T02:12:19;6.60;65.40
975;DHT22;6115;49.296;10.602;2023-04-15T02:17:20;6.60;65.60
975;DHT22;6115;49.296;10.602;2023-04-15T02:22:21;6.60;65.60
975;DHT22;6115;49.296;10.602;2023-04-15T02:27:21;6.60;65.70
975;DHT22;6115;49.296;10.602;2023-04-15T02:32:22;6.60;65.60
975;DHT22;6115;49.296;10.602;2023-04-15T02:37:23;6.50;65.70
975;DHT22;6115;49.296;10.602;2023-04-15T02:42:26;6.60;65.80
975;DHT22;6115;49.296;10.602;2023-04-15T02:47:28;6.50;65.70
975;DHT22;6115;49.296;10.602;2023-04-15T02:52:28;6.30;66.70
975;DHT22;6115;49.296;10.602;2023-04-15T02:57:29;6.20;66.60
975;DHT22;6115;49.296;10.602;2023-04-15T03:02:33;6.20;67.20
975;DHT22;6115;49.296;10.602;2023-04-15T03:07:41;6.10;67.50
975;DHT22;6115;49.296;10.602;2023-04-15T03:12:41;6.10;67.90
975;DHT22;6115;49.296;10.602;2023-04-15T03:17:42;6.10;68.00
975;DHT22;6115;49.296;10.602;2023-04-15T03:22:42;6.20;68.20
975;DHT22;6115;49.296;10.602;2023-04-15T03:27:43;6.20;67.80
975;DHT22;6115;49.296;10.602;2023-04-15T03:32:43;6.20;67.80
975;DHT22;6115;49.296;10.602;2023-04-15T03:37:44;6.10;67.90
975;DHT22;6115;49.296;10.602;2023-04-15T03:42:44;6.10;68.20
975;DHT22;6115;49.296;10.602;2023-04-15T03:47:45;6.10;68.50
975;DHT22;6115;49.296;10.602;2023-04-15T03:52:46;6.10;68.40
975;DHT22;6115;49.296;10.602;2023-04-15T03:57:46;6.00;68.70
975;DHT22;6115;49.296;10.602;2023-04-15T04:02:47;6.00;69.10
975;DHT22;6115;49.296;10.602;2023-04-15T04:07:47;5.90;69.40
975;DHT22;6115;49.296;10.602;2023-04-15T04:12:49;6.00;69.30
975;DHT22;6115;49.296;10.602;2023-04-15T04:17:51;6.00;68.80
975;DHT22;6115;49.296;10.602;2023-04-15T04:22:51;6.10;68.60
975;DHT22;6115;49.296;10.602;2023-04-15T04:27:52;6.10;68.30
975;DHT22;6115;49.296;10.602;2023-04-15T04:32:52;6.10;68.20
975;DHT22;6115;49.296;10.602;2023-04-15T04:37:53;6.20;68.00
975;DHT22;6115;49.296;10.602;2023-04-15T04:42:53;6.20;67.80
975;DHT22;6115;49.296;10.602;2023-04-15T04:47:54;6.20;67.60
975;DHT22;6115;49.296;10.602;2023-04-15T04:52:55;6.20;67.80
975;DHT22;6115;49.296;10.602;2023-04-15T04:57:55;6.20;67.90
975;DHT22;6115;49.296;10.602;2023-04-15T05:02:56;6.30;68.00
975;DHT22;6115;49.296;10.602;2023-04-15T05:07:57;6.30;68.20
975;DHT22;6115;49.296;10.602;2023-04-15T05:12:58;6.20;68.70
975;DHT22;6115;49.296;10.602;2023-04-15T05:17:58;6.30;68.80
975;DHT22;6115;49.296;10.602;2023-04-15T05:22:59;6.40;68.90
975;DHT22;6115;49.296;10.602;2023-04-15T05:27:59;6.40;68.80
975;DHT22;6115;49.296;10.602;2023-04-15T05:33:00;6.50;68.50
975;DHT22;6115;49.296;10.602;2023-04-15T05:38:01;6.40;68.00
975;DHT22;6115;49.296;10.602;2023-04-15T05:43:01;6.50;67.90
975;DHT22;6115;49.296;10.602;2023-04-15T05:48:04;6.50;67.90
975;DHT22;6115;49.296;10.602;2023-04-15T05:53:04;6.60;68.20
975;DHT22;6115;49.296;10.602;2023-04-15T05:58:05;6.60;68.30
975;DHT22;6115;49.296;10.602;2023-04-15T06:03:05;6.80;68.00
975;DHT22;6115;49.296;10.602;2023-04-15T06:08:07;7.00;67.40
975;DHT22;6115;49.296;10.602;2023-04-15T06:13:07;7.10;67.10
975;DHT22;6115;49.296;10.602;2023-04-15T06:18:08;7.20;66.40
975;DHT22;6115;49.296;10.602;2023-04-15T06:23:08;7.30;65.90
975;DHT22;6115;49.296;10.602;2023-04-15T06:28:09;7.30;65.60
975;DHT22;6115;49.296;10.602;2023-04-15T06:33:09;7.40;65.10
975;DHT22;6115;49.296;10.602;2023-04-15T06:38:10;7.60;64.70
975;DHT22;6115;49.296;10.602;2023-04-15T06:43:11;7.60;65.40
975;DHT22;6115;49.296;10.602;2023-04-15T06:48:13;7.90;65.60
975;DHT22;6115;49.296;10.602;2023-04-15T06:53:13;8.10;64.50
975;DHT22;6115;49.296;10.602;2023-04-15T06:58:14;8.40;63.70
975;DHT22;6115;49.296;10.602;2023-04-15T07:03:14;8.70;63.00
975;DHT22;6115;49.296;10.602;2023-04-15T07:08:15;8.80;61.80
975;DHT22;6115;49.296;10.602;2023-04-15T07:13:15;9.00;61.60
975;DHT22;6115;49.296;10.602;2023-04-15T07:18:16;9.20;60.60
975;DHT22;6115;49.296;10.602;2023-04-15T07:23:19;9.30;59.60
975;DHT22;6115;49.296;10.602;2023-04-15T07:28:20;9.40;59.70
975;DHT22;6115;49.296;10.602;2023-04-15T07:33:21;9.60;59.80
975;DHT22;6115;49.296;10.602;2023-04-15T07:38:21;9.70;58.50
975;DHT22;6115;49.296;10.602;2023-04-15T07:43:22;9.80;58.20
975;DHT22;6115;49.296;10.602;2023-04-15T07:48:23;9.90;56.20
975;DHT22;6115;49.296;10.602;2023-04-15T07:53:23;10.00;54.90
975;DHT22;6115;49.296;10.602;2023-04-15T07:58:24;10.00;55.40
975;DHT22;6115;49.296;10.602;2023-04-15T08:03:27;10.10;54.40
975;DHT22;6115;49.296;10.602;2023-04-15T08:08:27;10.20;53.10
975;DHT22;6115;49.296;10.602;2023-04-15T08:13:28;10.30;52.80
975;DHT22;6115;49.296;10.602;2023-04-15T08:18:28;10.50;52.80
975;DHT22;6115;49.296;10.602;2023-04-15T08:23:29;10.50;50.90
975;DHT22;6115;49.296;10.602;2023-04-15T08:28:29;10.70;51.10
975;DHT22;6115;49.296;10.602;2023-04-15T08:33:30;10.80;50.60
975;DHT22;6115;49.296;10.602;2023-04-15T08:38:31;11.00;50.40
975;DHT22;6115;49.296;10.602;2023-04-15T08:43:42;10.80;49.20
975;DHT22;6115;49.296;10.602;2023-04-15T08:48:47;10.80;49.40
975;DHT22;6115;49.296;10.602;2023-04-15T08:53:49;11.00;48.90
975;DHT22;6115;49.296;10.602;2023-04-15T08:58:49;11.10;48.10
975;DHT22;6115;49.296;10.602;2023-04-15T09:03:51;11.20;48.00
975;DHT22;6115;49.296;10.602;2023-04-15T09:08:53;11.60;47.30
975;DHT22;6115;49.296;10.602;2023-04-15T09:13:55;11.60;48.20
975;DHT22;6115;49.296;10.602;2023-04-15T09:18:55;11.70;48.20
975;DHT22;6115;49.296;10.602;2023-04-15T09:23:58;11.60;48.20
975;DHT22;6115;49.296;10.602;2023-04-15T09:29:08;11.50;50.00
975;DHT22;6115;49.296;10.602;2023-04-15T09:34:08;11.10;51.00
975;DHT22;6115;49.296;10.602;2023-04-15T09:39:09;10.80;50.10
975;DHT22;6115;49.296;10.602;2023-04-15T09:44:25;11.00;51.30
975;DHT22;6115;49.296;10.602;2023-04-15T09:49:26;11.30;50.80
975;DHT22;6115;49.296;10.602;2023-04-15T09:54:35;11.40;48.80
975;DHT22;6115;49.296;10.602;2023-04-15T09:59:36;11.60;48.60
975;DHT22;6115;49.296;10.602;2023-04-15T10:04:39;11.40;48.40
975;DHT22;6115;49.296;10.602;2023-04-15T10:09:41;11.40;49.30
975;DHT22;6115;49.296;10.602;2023-04-15T10:14:42;11.30;48.40
975;DHT22;6115;49.296;10.602;2023-04-15T10:19:43;11.10;49.20
975;DHT22;6115;49.296;10.602;2023-04-15T10:24:46;10.80;48.90
975;DHT22;6115;49.296;10.602;2023-04-15T10:29:51;10.70;49.90
975;DHT22;6115;49.296;10.602;2023-04-15T10:34:51;10.50;49.70
975;DHT22;6115;49.296;10.602;2023-04-15T10:39:53;10.40;50.00
975;DHT22;6115;49.296;10.602;2023-04-15T10:44:56;10.50;50.90
975;DHT22;6115;49.296;10.602;2023-04-15T10:49:58;10.50;50.30
975;DHT22;6115;49.296;10.602;2023-04-15T10:55:15;10.10;50.60
975;DHT22;6115;49.296;10.602;2023-04-15T11:00:19;9.80;53.90
975;DHT22;6115;49.296;10.602;2023-04-15T11:05:47;9.50;56.60
975;DHT22;6115;49.296;10.602;2023-04-15T11:15:44;9.00;58.50
975;DHT22;6115;49.296;10.602;2023-04-15T11:25:50;8.70;59.20
975;DHT22;6115;49.296;10.602;2023-04-15T11:30:50;8.50;60.10
975;DHT22;6115;49.296;10.602;2023-04-15T11:35:52;8.40;61.90
975;DHT22;6115;49.296;10.602;2023-04-15T11:40:54;8.60;60.80
975;DHT22;6115;49.296;10.602;2023-04-15T11:45:59;8.60;57.90
975;DHT22;6115;49.296;10.602;2023-04-15T11:51:02;8.60;59.00
975;DHT22;6115;49.296;10.602;2023-04-15T11:56:03;8.70;57.80
975;DHT22;6115;49.296;10.602;2023-04-15T12:01:05;8.40;57.60
975;DHT22;6115;49.296;10.602;2023-04-15T12:06:20;8.40;58.30
975;DHT22;6115;49.296;10.602;2023-04-15T12:11:37;8.40;58.90
975;DHT22;6115;49.296;10.602;2023-04-15T12:16:44;8.40;58.90
975;DHT22;6115;49.296;10.602;2023-04-15T12:21:48;8.40;58.90
975;DHT22;6115;49.296;10.602;2023-04-15T12:26:56;8.50;59.70
975;DHT22;6115;49.296;10.602;2023-04-15T12:31:58;8.70;60.50
975;DHT22;6115;49.296;10.602;2023-04-15T12:37:01;8.70;61.20
975;DHT22;6115;49.296;10.602;2023-04-15T12:42:02;8.80;61.40
975;DHT22;6115;49.296;10.602;2023-04-15T12:47:04;8.80;62.20
975;DHT22;6115;49.296;10.602;2023-04-15T12:52:05;9.00;64.30
975;DHT22;6115;49.296;10.602;2023-04-15T12:57:06;8.80;64.10
975;DHT22;6115;49.296;10.602;2023-04-15T13:02:06;8.70;64.90
975;DHT22;6115;49.296;10.602;2023-04-15T13:07:08;8.60;64.40
975;DHT22;6115;49.296;10.602;2023-04-15T13:12:08;8.40;63.70
975;DHT22;6115;49.296;10.602;2023-04-15T13:17:09;8.40;64.10
975;DHT22;6115;49.296;10.602;2023-04-15T13:22:11;8.60;63.90
975;DHT22;6115;49.296;10.602;2023-04-15T13:27:11;8.60;63.70
975;DHT22;6115;49.296;10.602;2023-04-15T13:32:12;8.50;63.40
975;DHT22;6115;49.296;10.602;2023-04-15T13:37:13;8.60;62.70
975;DHT22;6115;49.296;10.602;2023-04-15T13:42:14;8.60;62.20
975;DHT22;6115;49.296;10.602;2023-04-15T13:47:15;8.60;62.40
975;DHT22;6115;49.296;10.602;2023-04-15T13:52:15;8.60;62.20
975;DHT22;6115;49.296;10.602;2023-04-15T13:57:16;8.40;62.50
975;DHT22;6115;49.296;10.602;2023-04-15T14:02:16;8.50;62.50
975;DHT22;6115;49.296;10.602;2023-04-15T14:07:17;8.40;62.90
975;DHT22;6115;49.296;10.602;2023-04-15T14:12:17;8.30;63.70
975;DHT22;6115;49.296;10.602;2023-04-15T14:17:18;8.20;64.40
975;DHT22;6115;49.296;10.602;2023-04-15T14:22:18;8.10;65.90
975;DHT22;6115;49.296;10.602;2023-04-15T14:27:19;8.10;67.40
975;DHT22;6115;49.296;10.602;2023-04-15T14:32:20;7.90;68.50
975;DHT22;6115;49.296;10.602;2023-04-15T14:37:20;7.90;70.00
975;DHT22;6115;49.296;10.602;2023-04-15T14:42:22;8.00;70.60
975;DHT22;6115;49.296;10.602;2023-04-15T14:47:22;8.00;71.00
975;DHT22;6115;49.296;10.602;2023-04-15T14:52:23;8.00;73.20
975;DHT22;6115;49.296;10.602;2023-04-15T14:57:23;7.80;73.90
975;DHT22;6115;49.296;10.602;2023-04-15T15:02:24;7.70;75.70
975;DHT22;6115;49.296;10.602;2023-04-15T15:07:25;7.50;77.50
975;DHT22;6115;49.296;10.602;2023-04-15T15:12:25;7.40;78.50
975;DHT22;6115;49.296;10.602;2023-04-15T15:17:26;7.40;79.30
975;DHT22;6115;49.296;10.602;2023-04-15T15:22:26;7.30;79.20
975;DHT22;6115;49.296;10.602;2023-04-15T15:27:27;7.20;79.60
975;DHT22;6115;49.296;10.602;2023-04-15T15:32:29;7.30;80.30
975;DHT22;6115;49.296;10.602;2023-04-15T15:37:29;7.30;80.40
975;DHT22;6115;49.296;10.602;2023-04-15T15:42:30;7.30;80.10
975;DHT22;6115;49.296;10.602;2023-04-15T15:47:32;7.30;80.40
975;DHT22;6115;49.296;10.602;2023-04-15T15:52:33;7.40;80.50
975;DHT22;6115;49.296;10.602;2023-04-15T15:57:33;7.40;80.30
975;DHT22;6115;49.296;10.602;2023-04-15T16:02:35;7.40;80.00
975;DHT22;6115;49.296;10.602;2023-04-15T16:07:35;7.50;80.10
975;DHT22;6115;49.296;10.602;2023-04-15T16:12:36;7.60;80.10
975;DHT22;6115;49.296;10.602;2023-04-15T16:17:36;7.50;80.20
975;DHT22;6115;49.296;10.602;2023-04-15T16:22:37;7.40;80.10
975;DHT22;6115;49.296;10.602;2023-04-15T16:27:38;7.40;80.80
975;DHT22;6115;49.296;10.602;2023-04-15T16:32:39;7.40;82.10
975;DHT22;6115;49.296;10.602;2023-04-15T16:37:40;7.50;82.20
975;DHT22;6115;49.296;10.602;2023-04-15T16:42:40;7.50;82.20
975;DHT22;6115;49.296;10.602;2023-04-15T16:47:42;7.50;82.50
975;DHT22;6115;49.296;10.602;2023-04-15T16:52:43;7.60;83.00
975;DHT22;6115;49.296;10.602;2023-04-15T16:57:44;7.70;83.00
975;DHT22;6115;49.296;10.602;2023-04-15T17:02:44;7.60;83.40
975;DHT22;6115;49.296;10.602;2023-04-15T17:07:45;7.70;83.60
975;DHT22;6115;49.296;10.602;2023-04-15T17:12:45;7.70;83.80
975;DHT22;6115;49.296;10.602;2023-04-15T17:17:46;7.60;83.70
975;DHT22;6115;49.296;10.602;2023-04-15T17:22:47;7.60;83.90
975;DHT22;6115;49.296;10.602;2023-04-15T17:27:47;7.60;83.90
975;DHT22;6115;49.296;10.602;2023-04-15T17:32:49;7.50;83.80
975;DHT22;6115;49.296;10.602;2023-04-15T17:37:50;7.50;84.00
975;DHT22;6115;49.296;10.602;2023-04-15T17:42:51;7.50;84.20
975;DHT22;6115;49.296;10.602;2023-04-15T17:47:51;7.50;84.20
975;DHT22;6115;49.296;10.602;2023-04-15T17:52:52;7.40;83.70
975;DHT22;6115;49.296;10.602;2023-04-15T17:57:53;7.40;84.00
975;DHT22;6115;49.296;10.602;2023-04-15T18:02:55;7.40;83.90
975;DHT22;6115;49.296;10.602;2023-04-15T18:07:56;7.30;83.40
975;DHT22;6115;49.296;10.602;2023-04-15T18:12:56;7.30;83.40
975;DHT22;6115;49.296;10.602;2023-04-15T18:17:58;7.20;83.80
975;DHT22;6115;49.296;10.602;2023-04-15T18:22:59;7.20;84.40
975;DHT22;6115;49.296;10.602;2023-04-15T18:28:00;7.20;84.80
975;DHT22;6115;49.296;10.602;2023-04-15T18:33:00;7.20;85.00
975;DHT22;6115;49.296;10.602;2023-04-15T18:38:01;7.20;85.40
975;DHT22;6115;49.296;10.602;2023-04-15T18:43:01;7.20;85.90
975;DHT22;6115;49.296;10.602;2023-04-15T18:48:03;7.20;85.70
975;DHT22;6115;49.296;10.602;2023-04-15T18:53:04;7.10;85.60
975;DHT22;6115;49.296;10.602;2023-04-15T18:58:05;7.10;86.40
975;DHT22;6115;49.296;10.602;2023-04-15T19:03:06;7.10;86.40
975;DHT22;6115;49.296;10.602;2023-04-15T19:08:07;7.10;86.40
975;DHT22;6115;49.296;10.602;2023-04-15T19:13:07;7.10;86.50
975;DHT22;6115;49.296;10.602;2023-04-15T19:18:08;7.00;86.40
975;DHT22;6115;49.296;10.602;2023-04-15T19:23:10;7.00;86.40
975;DHT22;6115;49.296;10.602;2023-04-15T19:28:10;7.00;86.40
975;DHT22;6115;49.296;10.602;2023-04-15T19:33:11;7.00;86.40
975;DHT22;6115;49.296;10.602;2023-04-15T19:38:11;7.00;86.40
975;DHT22;6115;49.296;10.602;2023-04-15T19:43:12;7.00;86.40
975;DHT22;6115;49.296;10.602;2023-04-15T19:48:14;7.10;86.50
975;DHT22;6115;49.296;10.602;2023-04-15T19:53:15;7.00;86.40
975;DHT22;6115;49.296;10.602;2023-04-15T19:58:16;7.00;86.40
975;DHT22;6115;49.296;10.602;2023-04-15T20:03:16;7.10;86.40
975;DHT22;6115;49.296;10.602;2023-04-15T20:08:19;7.20;87.00
975;DHT22;6115;49.296;10.602;2023-04-15T20:13:19;7.20;87.00
975;DHT22;6115;49.296;10.602;2023-04-15T20:18:21;7.10;86.90
975;DHT22;6115;49.296;10.602;2023-04-15T20:23:22;7.10;87.20
975;DHT22;6115;49.296;10.602;2023-04-15T20:28:22;7.20;87.50
975;DHT22;6115;49.296;10.602;2023-04-15T20:33:25;7.10;87.10
975;DHT22;6115;49.296;10.602;2023-04-15T20:38:26;7.20;87.30
975;DHT22;6115;49.296;10.602;2023-04-15T20:43:27;7.10;87.10
975;DHT22;6115;49.296;10.602;2023-04-15T20:48:27;7.10;87.20
975;DHT22;6115;49.296;10.602;2023-04-15T20:53:28;7.10;87.50
975;DHT22;6115;49.296;10.602;2023-04-15T20:58:28;7.10;87.80
975;DHT22;6115;49.296;10.602;2023-04-15T21:03:29;7.10;87.90
975;DHT22;6115;49.296;10.602;2023-04-15T21:08:29;7.10;88.00
975;DHT22;6115;49.296;10.602;2023-04-15T21:13:30;7.10;88.30
975;DHT22;6115;49.296;10.602;2023-04-15T21:18:31;7.10;88.70
975;DHT22;6115;49.296;10.602;2023-04-15T21:23:31;7.20;88.90
975;DHT22;6115;49.296;10.602;2023-04-15T21:28:35;7.20;89.00
975;DHT22;6115;49.296;10.602;2023-04-15T21:33:36;7.30;89.20
975;DHT22;6115;49.296;10.602;2023-04-15T21:38:37;7.30;89.00
975;DHT22;6115;49.296;10.602;2023-04-15T21:43:37;7.30;88.90
975;DHT22;6115;49.296;10.602;2023-04-15T21:48:38;7.30;89.00
975;DHT22;6115;49.296;10.602;2023-04-15T21:53:38;7.30;89.30
975;DHT22;6115;49.296;10.602;2023-04-15T21:58:39;7.40;89.30
975;DHT22;6115;49.296;10.602;2023-04-15T22:03:40;7.30;89.20
975;DHT22;6115;49.296;10.602;2023-04-15T22:08:41;7.40;89.30
975;DHT22;6115;49.296;10.602;2023-04-15T22:13:42;7.50;89.30
975;DHT22;6115;49.296;10.602;2023-04-15T22:18:42;7.60;89.30
975;DHT22;6115;49.296;10.602;2023-04-15T22:23:50;7.60;89.20
975;DHT22;6115;49.296;10.602;2023-04-15T22:28:52;7.60;88.80
975;DHT22;6115;49.296;10.602;2023-04-15T22:33:52;7.50;88.90
975;DHT22;6115;49.296;10.602;2023-04-15T22:38:53;7.50;89.30
975;DHT22;6115;49.296;10.602;2023-04-15T22:43:53;7.50;89.70
975;DHT22;6115;49.296;10.602;2023-04-15T22:48:54;7.50;89.60
975;DHT22;6115;49.296;10.602;2023-04-15T22:53:54;7.40;90.00
975;DHT22;6115;49.296;10.602;2023-04-15T22:58:55;7.40;90.10
975;DHT22;6115;49.296;10.602;2023-04-15T23:03:56;7.40;90.20
975;DHT22;6115;49.296;10.602;2023-04-15T23:08:56;7.50;90.30
975;DHT22;6115;49.296;10.602;2023-04-15T23:13:57;7.40;90.30
975;DHT22;6115;49.296;10.602;2023-04-15T23:18:57;7.50;90.40
975;DHT22;6115;49.296;10.602;2023-04-15T23:23:58;7.50;90.30
975;DHT22;6115;49.296;10.602;2023-04-15T23:28:58;7.60;90.30
975;DHT22;6115;49.296;10.602;2023-04-15T23:33:59;7.60;90.40
975;DHT22;6115;49.296;10.602;2023-04-15T23:39:00;7.60;90.30
975;DHT22;6115;49.296;10.602;2023-04-15T23:44:00;7.70;90.40
975;DHT22;6115;49.296;10.602;2023-04-15T23:49:01;7.70;90.30
975;DHT22;6115;49.296;10.602;2023-04-15T23:54:01;7.70;90.30
975;DHT22;6115;49.296;10.602;2023-04-15T23:59:02;7.70;90.40
